createdAt,value
2018-09-22T00:00:12.402Z,84.39
2018-09-22T00:01:12.362Z,83.09
2018-09-22T00:02:12.384Z,83.57
2018-09-22T00:03:12.367Z,84.12
2018-09-22T00:04:12.426Z,83.57
2018-09-22T00:05:12.309Z,83.28
2018-09-22T00:06:12.427Z,83.91
2018-09-22T00:07:12.401Z,83.51
2018-09-22T00:08:12.380Z,83.57
2018-09-22T00:09:12.382Z,82.80
2018-09-22T00:10:12.286Z,82.56
2018-09-22T00:11:12.337Z,82.88
2018-09-22T00:12:12.343Z,83.57
2018-09-22T00:13:12.393Z,83.94
2018-09-22T00:14:12.428Z,84.50
2018-09-22T00:15:12.398Z,84.58
2018-09-22T00:16:12.435Z,84.79
2018-09-22T00:17:12.352Z,85.43
2018-09-22T00:18:12.337Z,85.96
2018-09-22T00:19:12.304Z,86.30
2018-09-22T00:20:12.311Z,86.15
2018-09-22T00:21:12.382Z,86.33
2018-09-22T00:22:12.386Z,86.36
2018-09-22T00:23:12.372Z,85.19
2018-09-22T00:24:12.438Z,85.72
2018-09-22T00:25:12.389Z,86.79
2018-09-22T00:26:12.346Z,86.15
2018-09-22T00:27:12.366Z,86.33
2018-09-22T00:28:12.385Z,86.84
2018-09-22T00:29:12.387Z,87.43
2018-09-22T00:30:12.395Z,86.41
2018-09-22T00:31:12.376Z,86.33
2018-09-22T00:32:12.393Z,87.26
2018-09-22T00:33:12.388Z,87.85
2018-09-22T00:34:12.392Z,87.93
2018-09-22T00:35:12.390Z,87.96
2018-09-22T00:36:12.403Z,88.54
2018-09-22T00:37:12.322Z,88.46
2018-09-22T00:38:12.380Z,88.52
2018-09-22T00:39:12.351Z,88.52
2018-09-22T00:40:12.390Z,88.81
2018-09-22T00:41:12.419Z,88.95
2018-09-22T00:42:12.366Z,89.08
2018-09-22T00:43:12.367Z,88.76
2018-09-22T00:44:12.387Z,89.22
2018-09-22T00:45:12.392Z,88.20
2018-09-22T00:46:12.357Z,88.09
2018-09-22T00:47:12.332Z,88.20
2018-09-22T00:48:12.397Z,88.46
2018-09-22T00:49:12.365Z,89.11
2018-09-22T00:50:12.416Z,89.35
2018-09-22T00:51:12.437Z,88.84
2018-09-22T00:52:12.371Z,89.16
2018-09-22T00:53:12.439Z,89.29
2018-09-22T00:54:12.437Z,89.16
2018-09-22T00:55:12.431Z,89.67
2018-09-22T00:56:12.371Z,89.29
2018-09-22T00:57:12.391Z,88.09
2018-09-22T00:58:12.370Z,87.77
2018-09-22T00:59:12.404Z,86.89
2018-09-22T01:00:12.410Z,86.63
2018-09-22T01:01:12.406Z,86.12
2018-09-22T01:02:12.374Z,86.12
2018-09-22T01:03:12.305Z,86.28
2018-09-22T01:04:12.415Z,86.15
2018-09-22T01:05:12.337Z,85.99
2018-09-22T01:06:12.340Z,86.20
2018-09-22T01:07:12.413Z,86.49
2018-09-22T01:08:12.310Z,85.38
2018-09-22T01:09:12.339Z,84.84
2018-09-22T01:10:12.346Z,84.74
2018-09-22T01:11:12.417Z,85.27
2018-09-22T01:12:12.417Z,85.03
2018-09-22T01:13:12.346Z,85.21
2018-09-22T01:14:12.358Z,85.16
2018-09-22T01:15:12.420Z,85.24
2018-09-22T01:16:12.426Z,85.35
2018-09-22T01:17:12.350Z,85.69
2018-09-22T01:18:12.309Z,85.99
2018-09-22T01:19:12.421Z,86.01
2018-09-22T01:20:12.415Z,86.01
2018-09-22T01:21:12.337Z,86.30
2018-09-22T01:22:12.388Z,86.41
2018-09-22T01:23:12.324Z,86.38
2018-09-22T01:24:12.400Z,86.36
2018-09-22T01:25:12.344Z,85.96
2018-09-22T01:26:12.442Z,85.91
2018-09-22T01:27:12.328Z,85.61
2018-09-22T01:28:12.382Z,86.01
2018-09-22T01:29:12.449Z,84.87
2018-09-22T01:30:12.417Z,83.99
2018-09-22T01:31:12.432Z,83.67
2018-09-22T01:32:12.377Z,83.54
2018-09-22T01:33:12.360Z,83.67
2018-09-22T01:34:12.370Z,84.09
2018-09-22T01:35:12.435Z,84.60
2018-09-22T01:36:12.506Z,84.31
2018-09-22T01:37:12.361Z,84.55
2018-09-22T01:38:12.368Z,84.47
2018-09-22T01:39:12.445Z,84.71
2018-09-22T01:40:12.429Z,84.87
2018-09-22T01:41:12.349Z,84.68
2018-09-22T01:42:12.325Z,85.08
2018-09-22T01:43:12.350Z,85.11
2018-09-22T01:44:12.260Z,85.21
2018-09-22T01:45:12.405Z,85.40
2018-09-22T01:46:12.351Z,85.48
2018-09-22T01:47:12.353Z,85.66
2018-09-22T01:48:12.284Z,86.09
2018-09-22T01:49:12.302Z,85.27
2018-09-22T01:50:12.450Z,85.53
2018-09-22T01:51:12.396Z,85.38
2018-09-22T01:52:12.378Z,85.40
2018-09-22T01:53:12.473Z,85.16
2018-09-22T01:54:12.360Z,84.68
2018-09-22T01:55:12.445Z,84.09
2018-09-22T01:56:12.467Z,84.34
2018-09-22T01:57:12.476Z,83.91
2018-09-22T01:58:12.368Z,84.07
2018-09-22T01:59:12.413Z,83.70
2018-09-22T02:00:12.450Z,83.51
2018-09-22T02:01:12.459Z,83.81
2018-09-22T02:02:12.453Z,84.09
2018-09-22T02:03:12.455Z,84.68
2018-09-22T02:04:12.455Z,84.60
2018-09-22T02:05:12.456Z,84.74
2018-09-22T02:06:12.350Z,84.89
2018-09-22T02:07:12.398Z,84.92
2018-09-22T02:08:12.384Z,85.38
2018-09-22T02:09:12.443Z,85.66
2018-09-22T02:10:12.387Z,85.93
2018-09-22T02:11:12.373Z,86.07
2018-09-22T02:12:12.446Z,85.93
2018-09-22T02:13:12.450Z,85.88
2018-09-22T02:14:12.388Z,86.20
2018-09-22T02:15:12.457Z,86.25
2018-09-22T02:16:12.431Z,86.33
2018-09-22T02:17:12.416Z,86.41
2018-09-22T02:18:12.466Z,86.60
2018-09-22T02:19:12.473Z,86.76
2018-09-22T02:20:12.370Z,86.79
2018-09-22T02:21:12.439Z,87.02
2018-09-22T02:22:12.421Z,87.18
2018-09-22T02:23:12.387Z,87.05
2018-09-22T02:24:12.501Z,87.10
2018-09-22T02:25:12.467Z,87.32
2018-09-22T02:26:12.469Z,87.32
2018-09-22T02:27:12.483Z,87.45
2018-09-22T02:28:12.494Z,87.59
2018-09-22T02:29:12.481Z,87.69
2018-09-22T02:30:12.472Z,87.88
2018-09-22T02:31:12.400Z,87.96
2018-09-22T02:32:12.407Z,88.12
2018-09-22T02:33:12.473Z,88.12
2018-09-22T02:34:12.407Z,88.31
2018-09-22T02:35:12.466Z,88.33
2018-09-22T02:36:12.440Z,88.36
2018-09-22T02:37:12.480Z,88.50
2018-09-22T02:38:12.403Z,88.50
2018-09-22T02:39:12.409Z,88.39
2018-09-22T02:40:12.414Z,88.62
2018-09-22T02:41:12.409Z,88.68
2018-09-22T02:42:12.491Z,88.50
2018-09-22T02:43:12.479Z,88.36
2018-09-22T02:44:12.471Z,88.31
2018-09-22T02:45:12.414Z,88.36
2018-09-22T02:46:12.489Z,88.50
2018-09-22T02:47:12.486Z,88.62
2018-09-22T02:48:12.410Z,88.54
2018-09-22T02:49:12.471Z,88.81
2018-09-22T02:50:12.485Z,88.76
2018-09-22T02:51:12.488Z,88.36
2018-09-22T02:52:12.435Z,88.09
2018-09-22T02:53:16.701Z,88.23
2018-09-22T02:54:12.485Z,88.33
2018-09-22T02:55:12.503Z,88.33
2018-09-22T02:56:12.473Z,88.20
2018-09-22T02:57:12.467Z,88.33
2018-09-22T02:58:12.424Z,88.17
2018-09-22T02:59:12.418Z,88.04
2018-09-22T03:00:12.468Z,88.12
2018-09-22T03:01:12.462Z,88.25
2018-09-22T03:02:12.459Z,88.44
2018-09-22T03:03:12.459Z,88.54
2018-09-22T03:04:12.526Z,88.73
2018-09-22T03:05:12.418Z,88.92
2018-09-22T03:06:12.394Z,89.24
2018-09-22T03:07:12.520Z,89.43
2018-09-22T03:08:12.490Z,89.70
2018-09-22T03:09:12.434Z,89.99
2018-09-22T03:10:12.433Z,90.09
2018-09-22T03:11:12.498Z,90.23
2018-09-22T03:12:12.518Z,90.53
2018-09-22T03:13:12.511Z,90.58
2018-09-22T03:14:12.433Z,90.71
2018-09-22T03:15:12.554Z,90.55
2018-09-22T03:16:12.504Z,90.55
2018-09-22T03:17:12.447Z,90.66
2018-09-22T03:18:12.506Z,90.47
2018-09-22T03:19:12.519Z,89.86
2018-09-22T03:20:12.468Z,89.27
2018-09-22T03:21:12.386Z,88.95
2018-09-22T03:22:12.400Z,88.89
2018-09-22T03:23:12.452Z,88.81
2018-09-22T03:24:12.411Z,88.68
2018-09-22T03:25:12.403Z,88.50
2018-09-22T03:26:12.409Z,88.50
2018-09-22T03:27:12.384Z,88.50
2018-09-22T03:28:12.501Z,88.79
2018-09-22T03:29:12.403Z,88.73
2018-09-22T03:30:12.453Z,88.97
2018-09-22T03:31:12.486Z,89.19
2018-09-22T03:32:12.511Z,89.03
2018-09-22T03:33:12.449Z,89.16
2018-09-22T03:34:12.516Z,89.64
2018-09-22T03:35:12.513Z,89.70
2018-09-22T03:36:12.513Z,89.64
2018-09-22T03:37:12.481Z,89.62
2018-09-22T03:38:12.560Z,89.67
2018-09-22T03:39:12.417Z,89.80
2018-09-22T03:40:12.514Z,90.20
2018-09-22T03:41:12.511Z,90.61
2018-09-22T03:42:12.463Z,90.90
2018-09-22T03:43:12.516Z,90.85
2018-09-22T03:44:12.441Z,90.96
2018-09-22T03:45:12.441Z,91.09
2018-09-22T03:46:12.518Z,91.14
2018-09-22T03:47:12.447Z,91.38
2018-09-22T03:48:12.518Z,91.84
2018-09-22T03:49:12.517Z,91.95
2018-09-22T03:50:12.495Z,92.16
2018-09-22T03:51:12.412Z,92.22
2018-09-22T03:52:12.482Z,92.38
2018-09-22T03:53:12.479Z,92.16
2018-09-22T03:54:12.423Z,91.86
2018-09-22T03:55:12.484Z,91.60
2018-09-22T03:56:12.426Z,91.17
2018-09-22T03:57:12.395Z,90.96
2018-09-22T03:58:12.419Z,90.77
2018-09-22T03:59:12.483Z,90.74
2018-09-22T04:00:12.613Z,90.85
2018-09-22T04:01:12.493Z,91.09
2018-09-22T04:02:12.508Z,91.17
2018-09-22T04:03:12.595Z,91.11
2018-09-22T04:04:12.567Z,91.11
2018-09-22T04:05:12.503Z,91.60
2018-09-22T04:06:12.464Z,91.60
2018-09-22T04:07:12.507Z,91.73
2018-09-22T04:08:12.555Z,91.97
2018-09-22T04:09:12.480Z,91.97
2018-09-22T04:10:12.584Z,91.82
2018-09-22T04:11:12.463Z,91.92
2018-09-22T04:12:12.560Z,92.11
2018-09-22T04:13:12.557Z,92.08
2018-09-22T04:14:12.501Z,92.05
2018-09-22T04:15:12.514Z,92.08
2018-09-22T04:16:12.492Z,91.90
2018-09-22T04:17:12.508Z,91.63
2018-09-22T04:18:12.580Z,91.28
2018-09-22T04:19:12.541Z,90.98
2018-09-22T04:20:12.461Z,90.80
2018-09-22T04:21:12.500Z,90.55
2018-09-22T04:22:12.469Z,90.42
2018-09-22T04:23:12.445Z,90.34
2018-09-22T04:24:12.472Z,90.31
2018-09-22T04:25:12.450Z,90.34
2018-09-22T04:26:12.467Z,90.61
2018-09-22T04:27:12.499Z,90.39
2018-09-22T04:28:12.417Z,90.26
2018-09-22T04:29:12.409Z,90.13
2018-09-22T04:30:12.580Z,89.99
2018-09-22T04:31:12.565Z,89.80
2018-09-22T04:32:12.531Z,89.70
2018-09-22T04:33:12.660Z,89.67
2018-09-22T04:34:12.587Z,89.45
2018-09-22T04:35:12.553Z,89.37
2018-09-22T04:36:12.461Z,89.19
2018-09-22T04:37:12.559Z,89.27
2018-09-22T04:38:12.477Z,89.00
2018-09-22T04:39:12.528Z,88.89
2018-09-22T04:40:12.554Z,88.81
2018-09-22T04:41:12.595Z,88.65
2018-09-22T04:42:12.479Z,88.50
2018-09-22T04:43:12.538Z,88.50
2018-09-22T04:44:12.593Z,88.44
2018-09-22T04:45:12.540Z,88.31
2018-09-22T04:46:12.602Z,88.15
2018-09-22T04:47:12.568Z,87.82
2018-09-22T04:48:12.532Z,87.82
2018-09-22T04:49:12.604Z,87.82
2018-09-22T04:50:12.565Z,87.82
2018-09-22T04:51:12.564Z,87.82
2018-09-22T04:52:12.602Z,87.82
2018-09-22T04:53:12.530Z,87.82
2018-09-22T04:54:12.572Z,87.82
2018-09-22T04:55:12.601Z,87.82
2018-09-22T04:56:12.528Z,87.82
2018-09-22T04:57:12.536Z,87.82
2018-09-22T04:58:12.587Z,87.82
2018-09-22T04:59:12.632Z,87.82
2018-09-22T05:00:12.565Z,87.82
2018-09-22T05:01:12.479Z,87.82
2018-09-22T05:02:12.570Z,87.82
2018-09-22T05:03:12.493Z,87.82
2018-09-22T05:04:12.574Z,87.82
2018-09-22T05:05:12.497Z,87.82
2018-09-22T05:06:12.571Z,87.82
2018-09-22T05:07:12.586Z,87.82
2018-09-22T05:08:12.507Z,87.82
2018-09-22T05:09:12.539Z,87.82
2018-09-22T05:10:12.498Z,87.82
2018-09-22T05:11:12.598Z,87.82
2018-09-22T05:12:12.590Z,87.82
2018-09-22T05:13:12.580Z,87.82
2018-09-22T05:14:12.525Z,87.82
2018-09-22T05:15:12.554Z,87.82
2018-09-22T05:16:12.583Z,87.82
2018-09-22T05:17:12.666Z,87.82
2018-09-22T05:18:12.555Z,87.82
2018-09-22T05:19:12.557Z,87.82
2018-09-22T05:20:12.527Z,87.82
2018-09-22T05:21:12.593Z,87.82
2018-09-22T05:22:12.591Z,87.82
2018-09-22T05:23:12.601Z,87.82
2018-09-22T05:24:12.522Z,87.82
2018-09-22T05:25:12.593Z,87.82
2018-09-22T05:26:12.524Z,87.82
2018-09-22T05:27:12.555Z,87.82
2018-09-22T05:28:12.601Z,87.82
2018-09-22T05:29:12.495Z,87.82
2018-09-22T05:30:12.552Z,87.82
2018-09-22T05:31:12.577Z,87.82
2018-09-22T05:32:12.586Z,87.82
2018-09-22T05:33:12.488Z,87.82
2018-09-22T05:34:12.583Z,87.82
2018-09-22T05:35:12.461Z,87.82
2018-09-22T05:36:12.556Z,87.82
2018-09-22T05:37:12.576Z,87.82
2018-09-22T05:38:12.590Z,87.82
2018-09-22T05:39:12.581Z,87.82
2018-09-22T05:40:12.594Z,87.82
2018-09-22T05:41:12.506Z,87.82
2018-09-22T05:42:12.593Z,87.82
2018-09-22T05:43:12.525Z,87.05
2018-09-22T05:44:12.535Z,87.10
2018-09-22T05:45:12.522Z,87.32
2018-09-22T05:46:12.520Z,86.81
2018-09-22T05:47:12.509Z,86.20
2018-09-22T05:48:12.713Z,85.93
2018-09-22T05:49:12.535Z,85.85
2018-09-22T05:50:12.541Z,86.12
2018-09-22T05:51:12.542Z,86.22
2018-09-22T05:52:12.609Z,86.15
2018-09-22T05:53:12.545Z,85.75
2018-09-22T05:54:12.615Z,85.85
2018-09-22T05:55:12.612Z,85.83
2018-09-22T05:56:12.574Z,85.46
2018-09-22T05:57:12.629Z,84.89
2018-09-22T05:58:12.653Z,84.95
2018-09-22T05:59:12.549Z,85.19
2018-09-22T06:00:12.538Z,85.75
2018-09-22T06:01:12.613Z,84.84
2018-09-22T06:02:12.643Z,84.76
2018-09-22T06:03:12.589Z,84.68
2018-09-22T06:04:12.621Z,83.91
2018-09-22T06:05:12.628Z,84.09
2018-09-22T06:06:12.632Z,83.67
2018-09-22T06:07:12.565Z,83.51
2018-09-22T06:08:12.599Z,83.70
2018-09-22T06:09:12.540Z,83.54
2018-09-22T06:10:12.638Z,83.36
2018-09-22T06:11:12.523Z,83.51
2018-09-22T06:12:12.675Z,83.09
2018-09-22T06:13:12.678Z,83.14
2018-09-22T06:14:12.645Z,82.88
2018-09-22T06:15:12.585Z,83.01
2018-09-22T06:16:12.649Z,83.17
2018-09-22T06:17:12.582Z,83.04
2018-09-22T06:18:12.589Z,82.85
2018-09-22T06:19:12.535Z,83.12
2018-09-22T06:20:12.630Z,83.40
2018-09-22T06:21:12.563Z,83.59
2018-09-22T06:22:12.634Z,83.28
2018-09-22T06:23:12.672Z,82.75
2018-09-22T06:24:12.569Z,82.75
2018-09-22T06:25:12.751Z,82.67
2018-09-22T06:26:12.571Z,82.32
2018-09-22T06:27:12.572Z,82.51
2018-09-22T06:28:12.642Z,82.51
2018-09-22T06:29:12.569Z,82.75
2018-09-22T06:30:12.651Z,82.67
2018-09-22T06:31:12.606Z,82.21
2018-09-22T06:32:12.647Z,82.40
2018-09-22T06:33:12.619Z,82.72
2018-09-22T06:34:12.666Z,83.14
2018-09-22T06:35:12.598Z,82.75
2018-09-22T06:36:12.620Z,82.53
2018-09-22T06:37:12.671Z,82.45
2018-09-22T06:38:12.640Z,82.27
2018-09-22T06:39:12.579Z,82.27
2018-09-22T06:40:12.685Z,82.72
2018-09-22T06:41:12.685Z,82.88
2018-09-22T06:42:12.663Z,82.90
2018-09-22T06:43:12.560Z,82.56
2018-09-22T06:44:12.629Z,82.77
2018-09-22T06:45:12.669Z,82.45
2018-09-22T06:46:12.743Z,82.80
2018-09-22T06:47:12.656Z,82.77
2018-09-22T06:48:12.548Z,82.80
2018-09-22T06:49:12.615Z,81.90
2018-09-22T06:50:12.683Z,82.27
2018-09-22T06:51:12.655Z,82.35
2018-09-22T06:52:12.582Z,82.35
2018-09-22T06:53:12.658Z,82.08
2018-09-22T06:54:12.662Z,81.95
2018-09-22T06:55:12.654Z,82.27
2018-09-22T06:56:12.664Z,81.66
2018-09-22T06:57:12.692Z,81.58
2018-09-22T06:58:12.664Z,81.74
2018-09-22T06:59:12.588Z,81.95
2018-09-22T07:00:12.667Z,82.21
2018-09-22T07:01:12.623Z,81.50
2018-09-22T07:02:12.584Z,80.87
2018-09-22T07:03:12.619Z,80.81
2018-09-22T07:04:12.625Z,81.00
2018-09-22T07:05:12.666Z,81.05
2018-09-22T07:06:12.697Z,80.41
2018-09-22T07:07:12.584Z,80.71
2018-09-22T07:08:12.644Z,80.87
2018-09-22T07:09:12.627Z,81.13
2018-09-22T07:10:12.637Z,80.26
2018-09-22T07:11:12.682Z,80.23
2018-09-22T07:12:12.626Z,80.87
2018-09-22T07:13:12.641Z,80.65
2018-09-22T07:14:12.639Z,80.18
2018-09-22T07:15:12.649Z,79.81
2018-09-22T07:16:12.604Z,79.91
2018-09-22T07:17:12.613Z,80.05
2018-09-22T07:18:12.666Z,80.18
2018-09-22T07:19:12.666Z,79.99
2018-09-22T07:20:12.710Z,78.73
2018-09-22T07:21:12.697Z,77.97
2018-09-22T07:22:12.634Z,78.31
2018-09-22T07:23:12.580Z,78.83
2018-09-22T07:24:12.713Z,78.44
2018-09-22T07:25:12.583Z,78.25
2018-09-22T07:26:12.600Z,78.36
2018-09-22T07:27:12.614Z,78.20
2018-09-22T07:28:12.636Z,77.31
2018-09-22T07:29:12.626Z,77.51
2018-09-22T07:30:12.581Z,77.44
2018-09-22T07:31:12.624Z,77.57
2018-09-22T07:32:12.611Z,76.65
2018-09-22T07:33:12.683Z,77.15
2018-09-22T07:34:12.687Z,76.65
2018-09-22T07:35:12.693Z,77.17
2018-09-22T07:36:12.685Z,77.28
2018-09-22T07:37:12.696Z,75.96
2018-09-22T07:38:12.617Z,77.54
2018-09-22T07:39:12.618Z,77.81
2018-09-22T07:40:12.695Z,77.49
2018-09-22T07:41:12.617Z,76.86
2018-09-22T07:42:12.706Z,76.86
2018-09-22T07:43:12.612Z,76.83
2018-09-22T07:44:12.685Z,77.99
2018-09-22T07:45:12.610Z,76.78
2018-09-22T07:46:12.659Z,77.28
2018-09-22T07:47:12.619Z,76.28
2018-09-22T07:48:12.592Z,75.92
2018-09-22T07:49:12.612Z,75.37
2018-09-22T07:50:12.691Z,75.81
2018-09-22T07:51:12.626Z,76.83
2018-09-22T07:52:12.629Z,76.57
2018-09-22T07:53:12.629Z,75.89
2018-09-22T07:54:12.662Z,75.21
2018-09-22T07:55:12.633Z,75.94
2018-09-22T07:56:12.696Z,76.28
2018-09-22T07:57:12.746Z,75.84
2018-09-22T07:58:12.631Z,75.37
2018-09-22T07:59:12.527Z,76.12
2018-09-22T08:00:12.669Z,75.65
2018-09-22T08:01:12.697Z,75.10
2018-09-22T08:02:12.697Z,74.99
2018-09-22T08:03:12.608Z,75.37
2018-09-22T08:04:12.635Z,74.97
2018-09-22T08:05:12.592Z,75.49
2018-09-22T08:06:12.628Z,75.07
2018-09-22T08:07:12.663Z,74.99
2018-09-22T08:08:12.625Z,74.40
2018-09-22T08:09:12.692Z,74.24
2018-09-22T08:10:12.625Z,74.26
2018-09-22T08:11:12.706Z,74.97
2018-09-22T08:12:12.768Z,73.71
2018-09-22T08:13:12.707Z,73.48
2018-09-22T08:14:12.628Z,74.47
2018-09-22T08:15:12.709Z,74.50
2018-09-22T08:16:12.639Z,73.63
2018-09-22T08:17:12.736Z,73.89
2018-09-22T08:18:12.689Z,74.47
2018-09-22T08:19:12.743Z,74.05
2018-09-22T08:20:12.711Z,73.66
2018-09-22T08:21:12.715Z,74.81
2018-09-22T08:22:12.682Z,74.79
2018-09-22T08:23:12.745Z,73.48
2018-09-22T08:24:12.748Z,73.66
2018-09-22T08:25:12.797Z,74.76
2018-09-22T08:26:12.715Z,74.03
2018-09-22T08:27:12.757Z,73.01
2018-09-22T08:28:12.660Z,73.40
2018-09-22T08:29:12.639Z,72.43
2018-09-22T08:30:12.686Z,72.53
2018-09-22T08:31:12.749Z,73.58
2018-09-22T08:32:12.761Z,72.53
2018-09-22T08:33:12.755Z,72.56
2018-09-22T08:34:12.648Z,72.36
2018-09-22T08:35:12.630Z,71.91
2018-09-22T08:36:12.818Z,72.20
2018-09-22T08:37:12.724Z,73.22
2018-09-22T08:38:12.692Z,72.12
2018-09-22T08:39:12.741Z,72.09
2018-09-22T08:40:12.656Z,72.14
2018-09-22T08:41:12.716Z,72.20
2018-09-22T08:42:12.709Z,72.36
2018-09-22T08:43:12.652Z,72.98
2018-09-22T08:44:12.713Z,72.17
2018-09-22T08:45:12.727Z,71.62
2018-09-22T08:46:12.667Z,71.49
2018-09-22T08:47:12.615Z,72.38
2018-09-22T08:48:12.684Z,72.22
2018-09-22T08:49:12.667Z,71.83
2018-09-22T08:50:12.602Z,71.26
2018-09-22T08:51:12.805Z,72.01
2018-09-22T08:52:12.661Z,69.82
2018-09-22T08:53:12.696Z,70.19
2018-09-22T08:54:12.717Z,70.45
2018-09-22T08:55:12.719Z,70.66
2018-09-22T08:56:12.686Z,70.11
2018-09-22T08:57:12.663Z,69.65
2018-09-22T08:58:12.702Z,69.12
2018-09-22T08:59:12.766Z,68.97
2018-09-22T09:00:12.681Z,70.17
2018-09-22T09:01:12.746Z,68.55
2018-09-22T09:02:12.679Z,71.49
2018-09-22T09:03:12.700Z,68.32
2018-09-22T09:04:12.753Z,67.80
2018-09-22T09:05:12.844Z,67.20
2018-09-22T09:06:12.682Z,67.33
2018-09-22T09:07:12.750Z,65.62
2018-09-22T09:08:12.683Z,65.73
2018-09-22T09:09:12.754Z,66.58
2018-09-22T09:10:12.820Z,66.48
2018-09-22T09:11:12.707Z,67.02
2018-09-22T09:12:12.674Z,66.79
2018-09-22T09:13:12.757Z,66.01
2018-09-22T09:14:12.708Z,65.91
2018-09-22T09:15:12.745Z,64.72
2018-09-22T09:16:12.743Z,63.35
2018-09-22T09:17:12.702Z,63.46
2018-09-22T09:18:12.747Z,65.58
2018-09-22T09:19:12.749Z,62.97
2018-09-22T09:20:12.756Z,62.92
2018-09-22T09:21:12.631Z,61.71
2018-09-22T09:22:12.747Z,62.07
2018-09-22T09:23:12.656Z,61.30
2018-09-22T09:24:12.680Z,61.43
2018-09-22T09:25:12.653Z,61.09
2018-09-22T09:26:12.680Z,60.84
2018-09-22T09:27:12.746Z,61.33
2018-09-22T09:28:12.669Z,62.66
2018-09-22T09:29:12.686Z,61.56
2018-09-22T09:30:12.752Z,60.84
2018-09-22T09:31:12.781Z,61.50
2018-09-22T09:32:12.800Z,60.43
2018-09-22T09:33:12.687Z,60.68
2018-09-22T09:34:12.736Z,60.58
2018-09-22T09:35:12.740Z,60.71
2018-09-22T09:36:12.767Z,62.35
2018-09-22T09:37:12.767Z,62.27
2018-09-22T09:38:12.792Z,61.17
2018-09-22T09:39:12.786Z,62.58
2018-09-22T09:40:12.728Z,61.89
2018-09-22T09:41:12.803Z,62.63
2018-09-22T09:42:12.796Z,62.84
2018-09-22T09:43:12.831Z,62.90
2018-09-22T09:44:12.802Z,63.07
2018-09-22T09:45:12.793Z,60.84
2018-09-22T09:46:12.801Z,62.07
2018-09-22T09:47:12.717Z,61.63
2018-09-22T09:48:12.691Z,63.30
2018-09-22T09:49:12.777Z,62.53
2018-09-22T09:50:12.804Z,64.10
2018-09-22T09:51:12.776Z,64.80
2018-09-22T09:52:12.778Z,63.43
2018-09-22T09:53:12.703Z,61.91
2018-09-22T09:54:12.821Z,61.84
2018-09-22T09:55:12.801Z,61.35
2018-09-22T09:56:12.806Z,61.91
2018-09-22T09:57:12.686Z,61.56
2018-09-22T09:58:12.790Z,61.99
2018-09-22T09:59:12.784Z,62.22
2018-09-22T10:00:12.755Z,63.43
2018-09-22T10:01:12.823Z,63.33
2018-09-22T10:02:12.748Z,63.18
2018-09-22T10:03:12.790Z,63.72
2018-09-22T10:04:12.832Z,64.21
2018-09-22T10:05:12.757Z,62.87
2018-09-22T10:06:12.764Z,61.97
2018-09-22T10:07:12.775Z,62.61
2018-09-22T10:08:12.839Z,62.40
2018-09-22T10:09:12.754Z,62.87
2018-09-22T10:10:12.869Z,61.63
2018-09-22T10:11:12.834Z,60.71
2018-09-22T10:12:12.758Z,61.14
2018-09-22T10:13:12.765Z,60.53
2018-09-22T10:14:12.713Z,61.12
2018-09-22T10:15:12.796Z,60.27
2018-09-22T10:16:12.830Z,60.07
2018-09-22T10:17:12.840Z,60.09
2018-09-22T10:18:12.719Z,59.63
2018-09-22T10:19:12.823Z,59.86
2018-09-22T10:20:12.830Z,59.56
2018-09-22T10:21:12.734Z,60.81
2018-09-22T10:22:12.802Z,60.89
2018-09-22T10:23:12.804Z,60.61
2018-09-22T10:24:12.806Z,61.40
2018-09-22T10:25:12.736Z,61.09
2018-09-22T10:26:12.778Z,60.84
2018-09-22T10:27:12.740Z,60.71
2018-09-22T10:28:12.809Z,61.06
2018-09-22T10:29:12.745Z,61.43
2018-09-22T10:30:12.839Z,62.02
2018-09-22T10:31:12.781Z,61.89
2018-09-22T10:32:12.767Z,61.35
2018-09-22T10:33:12.807Z,61.69
2018-09-22T10:34:12.808Z,61.63
2018-09-22T10:35:12.847Z,61.78
2018-09-22T10:36:12.807Z,60.53
2018-09-22T10:37:12.786Z,60.81
2018-09-22T10:38:12.809Z,60.37
2018-09-22T10:39:12.842Z,60.76
2018-09-22T10:40:12.810Z,61.69
2018-09-22T10:41:12.786Z,61.17
2018-09-22T10:42:12.881Z,60.94
2018-09-22T10:43:12.749Z,60.76
2018-09-22T10:44:12.852Z,60.07
2018-09-22T10:45:12.816Z,60.73
2018-09-22T10:46:12.852Z,61.48
2018-09-22T10:47:12.750Z,60.40
2018-09-22T10:48:12.790Z,59.76
2018-09-22T10:49:12.825Z,59.81
2018-09-22T10:50:12.791Z,60.66
2018-09-22T10:51:12.848Z,59.63
2018-09-22T10:52:12.744Z,59.63
2018-09-22T10:53:12.851Z,60.17
2018-09-22T10:54:12.828Z,59.37
2018-09-22T10:55:12.824Z,59.92
2018-09-22T10:56:12.824Z,57.87
2018-09-22T10:57:12.869Z,57.59
2018-09-22T10:58:12.844Z,56.39
2018-09-22T10:59:12.830Z,56.67
2018-09-22T11:00:12.768Z,56.61
2018-09-22T11:01:12.788Z,57.02
2018-09-22T11:02:12.744Z,57.46
2018-09-22T11:03:12.771Z,58.27
2018-09-22T11:04:12.777Z,57.76
2018-09-22T11:05:12.827Z,56.82
2018-09-22T11:06:12.825Z,56.93
2018-09-22T11:07:12.829Z,56.80
2018-09-22T11:08:12.750Z,57.21
2018-09-22T11:09:12.827Z,55.85
2018-09-22T11:10:12.821Z,54.23
2018-09-22T11:11:12.761Z,54.61
2018-09-22T11:12:12.752Z,55.09
2018-09-22T11:13:12.744Z,55.04
2018-09-22T11:14:12.788Z,55.50
2018-09-22T11:15:12.755Z,55.27
2018-09-22T11:16:12.832Z,56.18
2018-09-22T11:17:12.859Z,56.36
2018-09-22T11:18:12.832Z,56.44
2018-09-22T11:19:12.762Z,56.90
2018-09-22T11:20:12.718Z,57.87
2018-09-22T11:21:12.848Z,55.27
2018-09-22T11:22:12.842Z,55.96
2018-09-22T11:23:12.815Z,55.55
2018-09-22T11:24:12.820Z,55.14
2018-09-22T11:25:12.822Z,55.02
2018-09-22T11:26:12.861Z,55.22
2018-09-22T11:27:12.886Z,54.20
2018-09-22T11:28:12.855Z,54.53
2018-09-22T11:29:12.852Z,54.91
2018-09-22T11:30:12.881Z,54.99
2018-09-22T11:31:12.781Z,56.65
2018-09-22T11:32:12.858Z,55.06
2018-09-22T11:33:12.854Z,55.22
2018-09-22T11:34:12.742Z,54.68
2018-09-22T11:35:12.850Z,55.42
2018-09-22T11:36:12.796Z,55.19
2018-09-22T11:37:12.854Z,56.06
2018-09-22T11:38:12.894Z,55.32
2018-09-22T11:39:12.791Z,55.06
2018-09-22T11:40:12.850Z,55.57
2018-09-22T11:41:12.779Z,53.62
2018-09-22T11:42:12.837Z,53.72
2018-09-22T11:43:12.830Z,53.21
2018-09-22T11:44:12.875Z,54.02
2018-09-22T11:45:12.859Z,54.61
2018-09-22T11:46:12.899Z,54.56
2018-09-22T11:47:12.867Z,54.50
2018-09-22T11:48:12.859Z,54.08
2018-09-22T11:49:12.882Z,54.30
2018-09-22T11:50:12.896Z,52.57
2018-09-22T11:51:12.780Z,52.88
2018-09-22T11:52:12.858Z,51.95
2018-09-22T11:53:12.784Z,52.25
2018-09-22T11:54:12.740Z,53.77
2018-09-22T11:55:12.895Z,53.16
2018-09-22T11:56:12.792Z,54.08
2018-09-22T11:57:12.758Z,52.73
2018-09-22T11:58:12.862Z,53.09
2018-09-22T11:59:12.786Z,54.68
2018-09-22T12:00:12.825Z,54.58
2018-09-22T12:01:12.885Z,52.48
2018-09-22T12:02:12.875Z,52.27
2018-09-22T12:03:12.817Z,51.16
2018-09-22T12:04:12.811Z,49.60
2018-09-22T12:05:12.880Z,50.53
2018-09-22T12:06:12.902Z,51.01
2018-09-22T12:07:12.885Z,51.01
2018-09-22T12:08:12.813Z,52.48
2018-09-22T12:09:12.824Z,51.39
2018-09-22T12:10:12.814Z,50.86
2018-09-22T12:11:12.811Z,50.48
2018-09-22T12:12:12.813Z,50.10
2018-09-22T12:13:12.888Z,50.38
2018-09-22T12:14:12.904Z,51.29
2018-09-22T12:15:12.895Z,50.88
2018-09-22T12:16:12.888Z,50.78
2018-09-22T12:17:12.892Z,50.55
2018-09-22T12:18:12.935Z,50.25
2018-09-22T12:19:12.832Z,48.94
2018-09-22T12:20:12.818Z,50.13
2018-09-22T12:21:12.797Z,49.77
2018-09-22T12:22:12.864Z,49.49
2018-09-22T12:23:12.759Z,48.48
2018-09-22T12:24:12.843Z,48.31
2018-09-22T12:25:12.814Z,48.81
2018-09-22T12:26:12.756Z,47.86
2018-09-22T12:27:12.865Z,49.19
2018-09-22T12:28:12.785Z,47.96
2018-09-22T12:29:12.843Z,49.39
2018-09-22T12:30:12.820Z,47.51
2018-09-22T12:31:12.873Z,47.93
2018-09-22T12:32:12.879Z,47.76
2018-09-22T12:33:12.872Z,46.81
2018-09-22T12:34:12.884Z,47.15
2018-09-22T12:35:12.874Z,47.36
2018-09-22T12:36:12.884Z,47.93
2018-09-22T12:37:12.888Z,47.81
2018-09-22T12:38:12.816Z,47.93
2018-09-22T12:39:12.824Z,47.56
2018-09-22T12:40:12.805Z,48.31
2018-09-22T12:41:12.905Z,48.03
2018-09-22T12:42:12.912Z,48.72
2018-09-22T12:43:12.823Z,48.99
2018-09-22T12:44:13.024Z,48.59
2018-09-22T12:45:12.905Z,51.08
2018-09-22T12:46:12.898Z,49.55
2018-09-22T12:47:12.913Z,48.48
2018-09-22T12:48:12.921Z,49.06
2018-09-22T12:49:12.800Z,47.73
2018-09-22T12:50:12.843Z,47.51
2018-09-22T12:51:12.838Z,47.68
2018-09-22T12:52:12.844Z,47.58